Tubul — A8VP8 — position and weather

sailwx.info

Track history (hours):
 
Tides and Currents Weather Stations Pressure Air Temp Water Temp Dewpoint Dewpoint Depression Visibility Wind Speed Wind Dir Waves Ship Positions

Tubul

Last reported at 2017-Jul-26 07:04 UTC. Time now 2017-Aug-23 10:02 UTC.
Position N 30°43' E 032°21'.
Warning: this ship's position is 28 days out of date.

Length 300 m; draft 12.2 m.

Type: Ship (hazmat cat A). MMSI: 636014647.

Date/timePositionNaut miles runAvg speedWind from/ knotsBaromVisibWave heightAir tempDewpointWater temp
2017-Jul-26 07:04N 30°43' E 032°21'1 8.3
2017-Jul-26 07:00N 30°43' E 032°21'5 8.7
2017-Jul-26 06:26N 30°48' E 032°19'4 8.6
2017-Jul-26 05:55N 30°52' E 032°19'5 8.2
2017-Jul-26 05:22N 30°57' E 032°19'3 8.6
2017-Jul-26 05:00N 30°60' E 032°19'7 8.9
2017-Jul-26 04:10N 31°07' E 032°19'1 8.7
2017-Jul-26 04:00N 31°09' E 032°19'5 7.6
2017-Jul-26 03:17N 31°14' E 032°21'310.7
2017-Jul-26 03:00N 31°17' E 032°22'612.5
2017-Jul-26 02:30N 31°23' E 032°23'3 6.7
2017-Jul-26 02:00N 31°26' E 032°22'3 6.3
2017-Jul-26 01:28N 31°25' E 032°18'2 3.7
2017-Jul-26 00:56N 31°24' E 032°18'0 0.0
2017-Jul-26 00:14N 31°24' E 032°18'0 0.0
2017-Jul-25 23:59N 31°24' E 032°18'0 0.0
2017-Jul-25 20:08N 31°24' E 032°18'0 1.2
2017-Jul-25 20:00N 31°24' E 032°18'4 7.9
2017-Jul-25 19:30N 31°28' E 032°17'713.2
2017-Jul-25 19:00N 31°33' E 032°11'815.9
2017-Jul-25 18:31N 31°38' E 032°05'815.5
2017-Jul-25 18:00N 31°40' E 031°56'715.0
2017-Jul-25 17:30N 31°37' E 031°48'612.6
2017-Jul-25 17:00N 31°31' E 031°46'3 6.4
2017-Jul-25 16:31N 31°28' E 031°46'0 0.3
2017-Jul-25 15:19N 31°28' E 031°46'0 0.0
2017-Jul-25 14:55N 31°28' E 031°46'0 0.0
2017-Jul-25 13:58N 31°28' E 031°46'0 0.0
2017-Jul-25 13:28N 31°28' E 031°46'0 0.0
2017-Jul-25 12:58N 31°28' E 031°46'0 0.0
2017-Jul-25 12:28N 31°28' E 031°46'0 0.0
2017-Jul-25 11:55N 31°28' E 031°46'0 0.0
2017-Jul-25 11:28N 31°28' E 031°46'0 0.0
2017-Jul-25 10:55N 31°28' E 031°46'0 0.0
2017-Jul-25 10:28N 31°28' E 031°46'0 0.0
2017-Jul-25 09:16N 31°28' E 031°46'0 0.0
2017-Jul-25 07:25N 31°28' E 031°46'0 0.0
2017-Jul-25 06:22N 31°28' E 031°46'0 0.0
2017-Jul-24 16:52N 31°28' E 031°46'0 0.0
2017-Jul-24 16:25N 31°28' E 031°46'9 2.6
2017-Jul-24 12:49N 31°37' E 031°47'3 9.4
2017-Jul-24 12:30N 31°39' E 031°46'4 8.9
2017-Jul-24 12:01N 31°43' E 031°43'612.8
2017-Jul-24 11:30N 31°48' E 031°37'613.0
2017-Jul-24 11:00N 31°51' E 031°31'813.6
2017-Jul-24 10:24N 31°56' E 031°23'1714.5
2017-Jul-24 09:15N 32°05' E 031°07'414.4
2017-Jul-24 09:00N 32°07' E 031°03'2315.0
2017-Jul-24 07:26N 32°16' E 030°37'4413.1
2017-Jul-24 04:06N 32°29' E 029°48'1013.2
2017-Jul-24 03:20N 32°32' E 029°37'1013.1
2017-Jul-24 02:35N 32°34' E 029°25'213.1
2017-Jul-24 02:27N 32°35' E 029°23'1413.0
2017-Jul-24 01:21N 32°38' E 029°07'1012.7
2017-Jul-24 00:34N 32°41' E 028°55'3012.7
2017-Jul-23 22:10N 32°48' E 028°20'212.6
2017-Jul-23 22:00N 32°49' E 028°18'812.4
2017-Jul-23 21:21N 32°51' E 028°09'412.4
2017-Jul-23 21:00N 32°52' E 028°04'612.4
2017-Jul-23 20:30N 32°54' E 027°57'1812.6
2017-Jul-23 19:07N 32°59' E 027°37'1713.0
2017-Jul-23 17:47N 33°03' E 027°17'513.1
2017-Jul-23 17:24N 33°04' E 027°11'513.2
2017-Jul-23 17:00N 33°06' E 027°05'713.1
2017-Jul-23 16:30N 33°07' E 026°57'1313.4
2017-Jul-23 15:32N 33°10' E 026°42'213.5
2017-Jul-23 15:21N 33°11' E 026°39'513.6
2017-Jul-23 15:00N 33°12' E 026°34'20212.8
2017-Jul-22 23:09N 34°03' E 022°39'5912.5
2017-Jul-22 18:25N 34°18' E 021°30'512.2
2017-Jul-22 17:58N 34°20' E 021°24'1912.6
2017-Jul-22 16:28N 34°25' E 021°01'1112.7
2017-Jul-22 15:35N 34°27' E 020°48'112.8
2017-Jul-22 15:29N 34°28' E 020°47'612.9
2017-Jul-22 15:00N 34°29' E 020°39'2112.8
2017-Jul-22 13:21N 34°34' E 020°15'412.6
2017-Jul-22 13:00N 34°36' E 020°09'1512.6
2017-Jul-22 11:49N 34°40' E 019°52'412.5
2017-Jul-22 11:29N 34°41' E 019°47'3412.6
2017-Jul-22 08:45N 34°50' E 019°07'7 9.5
2017-Jul-22 08:00N 34°51' E 018°58'612.9
2017-Jul-22 07:30N 34°52' E 018°51'815.0
2017-Jul-22 06:57N 34°55' E 018°41'1015.0
2017-Jul-22 06:16N 34°57' E 018°29'415.1
2017-Jul-22 06:00N 34°58' E 018°24'715.0
2017-Jul-22 05:30N 35°00' E 018°15'714.6
2017-Jul-22 05:00N 35°02' E 018°07'713.7
2017-Jul-22 04:30N 35°04' E 017°59'713.7
2017-Jul-22 04:00N 35°06' E 017°50'713.8
2017-Jul-22 03:30N 35°07' E 017°42'713.7
2017-Jul-22 02:59N 35°09' E 017°34'713.8
2017-Jul-22 02:30N 35°11' E 017°26'713.6
2017-Jul-22 02:00N 35°13' E 017°18'713.5
2017-Jul-22 01:30N 35°15' E 017°10'713.4
2017-Jul-22 01:00N 35°16' E 017°02'713.5
2017-Jul-22 00:30N 35°18' E 016°54'713.5
2017-Jul-22 00:00N 35°20' E 016°46'713.5
2017-Jul-21 23:30N 35°21' E 016°38'713.6
2017-Jul-21 22:59N 35°23' E 016°30'713.6
2017-Jul-21 22:30N 35°25' E 016°22'713.8
2017-Jul-21 22:00N 35°27' E 016°14'713.9
2017-Jul-21 21:30N 35°28' E 016°06'714.0
2017-Jul-21 21:00N 35°30' E 015°57'714.0
2017-Jul-21 20:31N 35°32' E 015°49'714.1
2017-Jul-21 20:00N 35°34' E 015°41'714.2
2017-Jul-21 19:30N 35°36' E 015°32'714.1
2017-Jul-21 19:00N 35°37' E 015°24'714.2
2017-Jul-21 18:30N 35°39' E 015°15'714.0
2017-Jul-21 18:00N 35°41' E 015°07'713.6
2017-Jul-21 17:30N 35°43' E 014°59'713.6
2017-Jul-21 17:00N 35°44' E 014°51'713.4
2017-Jul-21 16:30N 35°45' E 014°43'613.0
2017-Jul-21 16:00N 35°48' E 014°35'3 5.7
2017-Jul-21 15:30N 35°49' E 014°32'0 0.1
2017-Jul-21 14:54N 35°49' E 014°32'0 0.0
2017-Jul-21 14:24N 35°49' E 014°32'0 0.0
2017-Jul-21 14:00N 35°49' E 014°32'0 0.0
2017-Jul-21 13:30N 35°49' E 014°32'0 0.0
2017-Jul-21 13:00N 35°49' E 014°32'0 0.0
2017-Jul-21 12:30N 35°49' E 014°32'0 0.0
2017-Jul-21 12:00N 35°49' E 014°32'0 0.0
2017-Jul-21 11:27N 35°49' E 014°32'0 0.0
2017-Jul-21 10:48N 35°49' E 014°32'0 0.0
2017-Jul-21 10:27N 35°49' E 014°32'0 0.0
2017-Jul-21 10:00N 35°49' E 014°32'0 0.0
2017-Jul-21 09:27N 35°49' E 014°32'0 0.0
2017-Jul-21 09:00N 35°49' E 014°32'0 0.0
2017-Jul-21 08:30N 35°49' E 014°32'0 0.0
2017-Jul-21 08:00N 35°49' E 014°32'0 0.0
2017-Jul-21 07:30N 35°49' E 014°32'0 0.3
2017-Jul-21 07:00N 35°49' E 014°32'2 4.9
2017-Jul-21 06:30N 35°48' E 014°35'1 2.5
2017-Jul-21 06:01N 35°47' E 014°36'2 3.5
2017-Jul-21 05:30N 35°46' E 014°37'1 2.4
2017-Jul-21 05:00N 35°44' E 014°37'0 0.3
2017-Jul-21 04:30N 35°44' E 014°36'0 0.5
2017-Jul-21 04:00N 35°44' E 014°36'2 4.4
2017-Jul-21 03:30N 35°44' E 014°33'612.0
2017-Jul-21 03:00N 35°43' E 014°26'816.1
2017-Jul-21 02:30N 35°48' E 014°19'918.2
2017-Jul-21 02:00N 35°54' E 014°10'918.0
2017-Jul-21 01:30N 36°01' E 014°03'918.1
2017-Jul-21 01:00N 36°07' E 013°55'918.1
2017-Jul-21 00:30N 36°13' E 013°47'918.1
2017-Jul-21 00:00N 36°20' E 013°39'918.1
2017-Jul-20 23:30N 36°26' E 013°31'918.1
2017-Jul-20 23:00N 36°33' E 013°23'918.0
2017-Jul-20 22:30N 36°39' E 013°15'917.8
2017-Jul-20 22:00N 36°45' E 013°07'917.8
2017-Jul-20 21:30N 36°51' E 012°58'918.0
2017-Jul-20 21:00N 36°58' E 012°51'918.2
2017-Jul-20 20:30N 37°04' E 012°43'918.1
2017-Jul-20 20:01N 37°10' E 012°35'917.7
2017-Jul-20 19:30N 37°17' E 012°27'917.6
2017-Jul-20 19:00N 37°23' E 012°19'918.3
2017-Jul-20 18:30N 37°28' E 012°10'918.6
2017-Jul-20 18:00N 37°35' E 012°02'918.7
2017-Jul-20 17:30N 37°42' E 011°54'918.7
2017-Jul-20 17:00N 37°50' E 011°47'918.5
2017-Jul-20 16:30N 37°58' E 011°44'1018.3
2017-Jul-20 15:59N 38°08' E 011°40'918.1
2017-Jul-20 15:30N 38°16' E 011°37'4218.3
2017-Jul-20 13:12N 38°55' E 011°17'2718.4
2017-Jul-20 11:44N 39°20' E 011°05'418.6
2017-Jul-20 11:30N 39°24' E 011°03'1418.6
2017-Jul-20 10:46N 39°37' E 010°57'718.4
2017-Jul-20 10:25N 39°44' E 010°55'917.7
2017-Jul-20 09:54N 39°52' E 010°51'817.1
2017-Jul-20 09:26N 39°60' E 010°48'7017.2
2017-Jul-20 05:24N 41°07' E 010°22'718.5
2017-Jul-20 05:00N 41°13' E 010°18'918.8
2017-Jul-20 04:30N 41°22' E 010°15'918.7
2017-Jul-20 04:01N 41°31' E 010°11'918.6
2017-Jul-20 03:30N 41°40' E 010°07'918.6
2017-Jul-20 03:00N 41°49' E 010°03'918.8
2017-Jul-20 02:30N 41°58' E 009°59'1019.2
2017-Jul-20 02:01N 42°07' E 009°56'919.0
2017-Jul-20 01:30N 42°16' E 009°52'1018.9
2017-Jul-20 01:00N 42°25' E 009°49'918.9
2017-Jul-20 00:30N 42°34' E 009°45'1418.4
2017-Jul-19 23:46N 42°47' E 009°40'518.1
2017-Jul-19 23:30N 42°52' E 009°38'917.9
2017-Jul-19 23:00N 43°01' E 009°35'917.9
2017-Jul-19 22:30N 43°09' E 009°32'918.0
2017-Jul-19 22:00N 43°18' E 009°29'918.1
2017-Jul-19 21:30N 43°26' E 009°25'918.0
2017-Jul-19 21:00N 43°35' E 009°21'918.2
2017-Jul-19 20:30N 43°44' E 009°17'918.1
2017-Jul-19 20:00N 43°52' E 009°13'918.3
2017-Jul-19 19:30N 44°01' E 009°09'918.5
2017-Jul-19 19:00N 44°09' E 009°04'918.7
2017-Jul-19 18:30N 44°18' E 008°59'612.6
2017-Jul-19 18:01N 44°24' E 008°55'1 1.2
2017-Jul-19 17:28N 44°24' E 008°55'0 0.0
2017-Jul-19 16:58N 44°24' E 008°55'0 0.0
2017-Jul-19 16:28N 44°24' E 008°55'0 0.0
2017-Jul-19 15:58N 44°24' E 008°55'0 0.0
2017-Jul-19 15:28N 44°24' E 008°55'0 0.0
2017-Jul-19 14:58N 44°24' E 008°55'0 0.0
2017-Jul-19 14:28N 44°24' E 008°55'0 0.0
2017-Jul-19 13:55N 44°24' E 008°55'0 0.0
2017-Jul-19 13:28N 44°24' E 008°55'0 0.0
2017-Jul-19 12:55N 44°24' E 008°55'0 0.0
2017-Jul-19 12:19N 44°24' E 008°55'0 0.0
2017-Jul-19 11:55N 44°24' E 008°55'0 0.0
2017-Jul-19 11:22N 44°24' E 008°55'0 0.0
2017-Jul-19 10:58N 44°24' E 008°55'0 0.0
2017-Jul-19 10:25N 44°24' E 008°55'0 0.0
2017-Jul-19 09:58N 44°24' E 008°55'0 0.0
2017-Jul-19 09:28N 44°24' E 008°55'0 0.0
2017-Jul-19 08:52N 44°24' E 008°55'0 0.0
2017-Jul-19 08:28N 44°24' E 008°55'0 0.0
2017-Jul-19 07:58N 44°24' E 008°55'0 0.0
2017-Jul-19 07:28N 44°24' E 008°55'0 0.0
2017-Jul-19 06:55N 44°24' E 008°55'0 0.0
2017-Jul-19 06:28N 44°24' E 008°55'0 0.0
2017-Jul-19 05:55N 44°24' E 008°55'0 0.0
2017-Jul-19 05:28N 44°24' E 008°55'0 0.0
2017-Jul-19 04:58N 44°24' E 008°55'0 0.0
2017-Jul-19 04:28N 44°24' E 008°55'0 0.0
2017-Jul-19 03:58N 44°24' E 008°55'0 0.0
2017-Jul-19 03:28N 44°24' E 008°55'0 0.0
2017-Jul-19 02:58N 44°24' E 008°55'0 0.0
2017-Jul-19 02:28N 44°24' E 008°55'0 0.0
2017-Jul-19 01:58N 44°24' E 008°55'0 0.0
2017-Jul-19 01:28N 44°24' E 008°55'0 0.0
2017-Jul-19 01:00N 44°24' E 008°55'0 0.0
2017-Jul-19 00:30N 44°24' E 008°55'0 0.0
2017-Jul-19 00:00N 44°24' E 008°55'0 0.0
2017-Jul-18 23:30N 44°24' E 008°55'0 0.0
2017-Jul-18 23:00N 44°24' E 008°55'0 0.0
2017-Jul-18 22:30N 44°24' E 008°55'0 0.0
2017-Jul-18 22:00N 44°24' E 008°55'0 0.0
2017-Jul-18 21:30N 44°24' E 008°55'0 0.0
2017-Jul-18 21:00N 44°24' E 008°55'0 0.0
2017-Jul-18 20:30N 44°24' E 008°55'0 0.0
2017-Jul-18 20:00N 44°24' E 008°55'0 0.0
2017-Jul-18 19:30N 44°24' E 008°55'0 0.0
2017-Jul-18 19:00N 44°24' E 008°55'0 0.0
2017-Jul-18 18:30N 44°24' E 008°55'0 0.0
2017-Jul-18 18:00N 44°24' E 008°55'0 0.0
2017-Jul-18 17:30N 44°24' E 008°55'0 0.0
2017-Jul-18 17:00N 44°24' E 008°55'0 0.0
2017-Jul-18 16:30N 44°24' E 008°55'0 0.0
2017-Jul-18 16:00N 44°24' E 008°55'0 0.0
2017-Jul-18 15:30N 44°24' E 008°55'0 0.0
2017-Jul-18 15:00N 44°24' E 008°55'0 0.0
2017-Jul-18 14:00N 44°24' E 008°55'0 0.0
2017-Jul-18 13:30N 44°24' E 008°55'0 0.0
2017-Jul-18 12:54N 44°24' E 008°55'0 0.0
2017-Jul-18 12:27N 44°24' E 008°55'0 0.0
2017-Jul-18 12:00N 44°24' E 008°55'0 0.0
2017-Jul-18 11:27N 44°24' E 008°55'0 0.0
2017-Jul-18 10:57N 44°24' E 008°55'0 0.0
2017-Jul-18 10:30N 44°24' E 008°55'0 0.0
2017-Jul-18 10:00N 44°24' E 008°55'0 0.0
2017-Jul-18 09:30N 44°24' E 008°55'1 1.7
2017-Jul-18 09:00N 44°24' E 008°56'2 4.5
2017-Jul-18 08:30N 44°22' E 008°58'4 8.7
2017-Jul-18 08:00N 44°18' E 009°00'612.7
2017-Jul-18 07:30N 44°12' E 008°59'714.2
2017-Jul-18 07:00N 44°06' E 008°53'713.2
2017-Jul-18 06:31N 44°01' E 008°48'612.8
2017-Jul-18 06:01N 43°56' E 008°42'612.7
2017-Jul-18 05:31N 43°51' E 008°36'612.8
2017-Jul-18 05:00N 43°46' E 008°30'612.7
2017-Jul-18 04:31N 43°41' E 008°25'612.6
2017-Jul-18 04:00N 43°36' E 008°19'612.7
2017-Jul-18 03:31N 43°31' E 008°14'612.7
2017-Jul-18 03:01N 43°26' E 008°09'713.2
2017-Jul-18 02:30N 43°22' E 008°01'713.8
2017-Jul-18 02:01N 43°18' E 007°54'713.6
2017-Jul-18 01:31N 43°14' E 007°46'713.4
2017-Jul-18 01:01N 43°11' E 007°38'713.5
2017-Jul-18 00:31N 43°07' E 007°31'713.4
2017-Jul-18 00:01N 43°03' E 007°23'713.2
2017-Jul-17 23:31N 42°60' E 007°15'713.0
2017-Jul-17 23:01N 42°57' E 007°07'613.0
2017-Jul-17 22:31N 42°54' E 006°59'712.9
2017-Jul-17 22:00N 42°51' E 006°51'1112.9
2017-Jul-17 21:07N 42°45' E 006°38'312.8
2017-Jul-17 20:52N 42°44' E 006°34'512.8
2017-Jul-17 20:31N 42°42' E 006°29'612.7
2017-Jul-17 20:01N 42°39' E 006°21'612.8
2017-Jul-17 19:31N 42°36' E 006°13'612.8
2017-Jul-17 19:00N 42°33' E 006°05'712.9
2017-Jul-17 18:29N 42°30' E 005°57'713.0
2017-Jul-17 17:56N 42°27' E 005°49'512.6
2017-Jul-17 17:30N 42°24' E 005°42'913.6
2017-Jul-17 16:52N 42°20' E 005°32'1813.9
2017-Jul-17 15:34N 42°11' E 005°10'114.0
2017-Jul-17 15:31N 42°11' E 005°09'913.8
2017-Jul-17 14:52N 42°07' E 004°59'2212.5
2017-Jul-17 13:08N 41°56' E 004°34'312.0
2017-Jul-17 12:52N 41°55' E 004°30'512.1
2017-Jul-17 12:30N 41°53' E 004°24'612.3
2017-Jul-17 12:00N 41°50' E 004°17'812.3
2017-Jul-17 11:24N 41°46' E 004°08'612.7
2017-Jul-17 10:56N 41°43' E 004°02'1512.5
2017-Jul-17 09:44N 41°36' E 003°44'414.4
2017-Jul-17 09:29N 41°34' E 003°40'714.8
2017-Jul-17 09:00N 41°30' E 003°32'1115.7
2017-Jul-17 08:18N 41°25' E 003°19'515.4
2017-Jul-17 08:00N 41°22' E 003°14'815.6
2017-Jul-17 07:30N 41°16' E 003°08'815.7
2017-Jul-17 07:00N 41°10' E 003°02'815.8
2017-Jul-17 06:30N 41°04' E 002°55'815.9
2017-Jul-17 06:00N 40°57' E 002°49'816.1
2017-Jul-17 05:30N 40°51' E 002°42'816.0
2017-Jul-17 05:00N 40°45' E 002°35'816.1
2017-Jul-17 04:30N 40°38' E 002°29'816.0
2017-Jul-17 04:00N 40°32' E 002°23'815.8
2017-Jul-17 03:30N 40°26' E 002°16'815.9
2017-Jul-17 03:00N 40°20' E 002°09'816.0
2017-Jul-17 02:30N 40°14' E 002°03'816.2
2017-Jul-17 02:00N 40°07' E 001°56'816.0
2017-Jul-17 01:30N 40°01' E 001°49'816.0
2017-Jul-17 01:00N 39°55' E 001°43'815.9
2017-Jul-17 00:30N 39°49' E 001°37'815.8
2017-Jul-17 00:00N 39°42' E 001°30'815.7
2017-Jul-16 23:30N 39°36' E 001°24'815.7
2017-Jul-16 23:00N 39°30' E 001°18'815.7
2017-Jul-16 22:30N 39°24' E 001°11'816.0
2017-Jul-16 21:59N 39°17' E 001°05'816.0
2017-Jul-16 21:30N 39°11' E 000°58'2316.0
2017-Jul-16 20:03N 38°53' E 000°40'316.3
2017-Jul-16 19:52N 38°51' E 000°37'916.4
2017-Jul-16 19:21N 38°44' E 000°30'616.5
2017-Jul-16 19:00N 38°39' E 000°26'1116.2
2017-Jul-16 18:20N 38°31' E 000°19'412.9
2017-Jul-16 18:00N 38°27' E 000°16'611.3
2017-Jul-16 17:29N 38°22' E 000°11'611.4
2017-Jul-16 17:00N 38°17' E 000°08'2611.2
2017-Jul-16 14:43N 37°56' W 000°11'1111.0
2017-Jul-16 13:42N 37°47' W 000°19'211.2
2017-Jul-16 13:29N 37°45' W 000°21'511.3
2017-Jul-16 13:00N 37°41' W 000°24'611.5
2017-Jul-16 12:30N 37°36' W 000°29'611.3
2017-Jul-16 12:00N 37°31' W 000°33'612.6
2017-Jul-16 11:29N 37°27' W 000°39'919.2
2017-Jul-16 11:00N 37°21' W 000°48'1019.9
2017-Jul-16 10:30N 37°15' W 000°57'  
Track history (hours):
 
Tides and Currents Weather Stations Pressure Air Temp Water Temp Dewpoint Dewpoint Depression Visibility Wind Speed Wind Dir Waves Ship Positions

Tubul

Last reported at 2017-Jul-26 07:04 UTC. Time now 2017-Aug-23 10:02 UTC.
Position N 30°43' E 032°21'.
Warning: this ship's position is 28 days out of date.

Length 300 m; draft 12.2 m.

Type: Ship (hazmat cat A). MMSI: 636014647.

Date/timePositionNaut miles runAvg speedWind from/ knotsBaromVisibWave heightAir tempDewpointWater temp
2017-Jul-26 07:04N 30°43' E 032°21'1 8.3
2017-Jul-26 07:00N 30°43' E 032°21'5 8.7
2017-Jul-26 06:26N 30°48' E 032°19'4 8.6
2017-Jul-26 05:55N 30°52' E 032°19'5 8.2
2017-Jul-26 05:22N 30°57' E 032°19'3 8.6
2017-Jul-26 05:00N 30°60' E 032°19'7 8.9
2017-Jul-26 04:10N 31°07' E 032°19'1 8.7
2017-Jul-26 04:00N 31°09' E 032°19'5 7.6
2017-Jul-26 03:17N 31°14' E 032°21'310.7
2017-Jul-26 03:00N 31°17' E 032°22'612.5
2017-Jul-26 02:30N 31°23' E 032°23'3 6.7
2017-Jul-26 02:00N 31°26' E 032°22'3 6.3
2017-Jul-26 01:28N 31°25' E 032°18'2 3.7
2017-Jul-26 00:56N 31°24' E 032°18'0 0.0
2017-Jul-26 00:14N 31°24' E 032°18'0 0.0
2017-Jul-25 23:59N 31°24' E 032°18'0 0.0
2017-Jul-25 20:08N 31°24' E 032°18'0 1.2
2017-Jul-25 20:00N 31°24' E 032°18'4 7.9
2017-Jul-25 19:30N 31°28' E 032°17'713.2
2017-Jul-25 19:00N 31°33' E 032°11'815.9
2017-Jul-25 18:31N 31°38' E 032°05'815.5
2017-Jul-25 18:00N 31°40' E 031°56'715.0
2017-Jul-25 17:30N 31°37' E 031°48'612.6
2017-Jul-25 17:00N 31°31' E 031°46'3 6.4
2017-Jul-25 16:31N 31°28' E 031°46'0 0.3
2017-Jul-25 15:19N 31°28' E 031°46'0 0.0
2017-Jul-25 14:55N 31°28' E 031°46'0 0.0
2017-Jul-25 13:58N 31°28' E 031°46'0 0.0
2017-Jul-25 13:28N 31°28' E 031°46'0 0.0
2017-Jul-25 12:58N 31°28' E 031°46'0 0.0
2017-Jul-25 12:28N 31°28' E 031°46'0 0.0
2017-Jul-25 11:55N 31°28' E 031°46'0 0.0
2017-Jul-25 11:28N 31°28' E 031°46'0 0.0
2017-Jul-25 10:55N 31°28' E 031°46'0 0.0
2017-Jul-25 10:28N 31°28' E 031°46'0 0.0
2017-Jul-25 09:16N 31°28' E 031°46'0 0.0
2017-Jul-25 07:25N 31°28' E 031°46'0 0.0
2017-Jul-25 06:22N 31°28' E 031°46'0 0.0
2017-Jul-24 16:52N 31°28' E 031°46'0 0.0
2017-Jul-24 16:25N 31°28' E 031°46'9 2.6
2017-Jul-24 12:49N 31°37' E 031°47'3 9.4
2017-Jul-24 12:30N 31°39' E 031°46'4 8.9
2017-Jul-24 12:01N 31°43' E 031°43'612.8
2017-Jul-24 11:30N 31°48' E 031°37'613.0
2017-Jul-24 11:00N 31°51' E 031°31'813.6
2017-Jul-24 10:24N 31°56' E 031°23'1714.5
2017-Jul-24 09:15N 32°05' E 031°07'414.4
2017-Jul-24 09:00N 32°07' E 031°03'2315.0
2017-Jul-24 07:26N 32°16' E 030°37'4413.1
2017-Jul-24 04:06N 32°29' E 029°48'1013.2
2017-Jul-24 03:20N 32°32' E 029°37'1013.1
2017-Jul-24 02:35N 32°34' E 029°25'213.1
2017-Jul-24 02:27N 32°35' E 029°23'1413.0
2017-Jul-24 01:21N 32°38' E 029°07'1012.7
2017-Jul-24 00:34N 32°41' E 028°55'3012.7
2017-Jul-23 22:10N 32°48' E 028°20'212.6
2017-Jul-23 22:00N 32°49' E 028°18'812.4
2017-Jul-23 21:21N 32°51' E 028°09'412.4
2017-Jul-23 21:00N 32°52' E 028°04'612.4
2017-Jul-23 20:30N 32°54' E 027°57'1812.6
2017-Jul-23 19:07N 32°59' E 027°37'1713.0
2017-Jul-23 17:47N 33°03' E 027°17'513.1
2017-Jul-23 17:24N 33°04' E 027°11'513.2
2017-Jul-23 17:00N 33°06' E 027°05'713.1
2017-Jul-23 16:30N 33°07' E 026°57'1313.4
2017-Jul-23 15:32N 33°10' E 026°42'213.5
2017-Jul-23 15:21N 33°11' E 026°39'513.6
2017-Jul-23 15:00N 33°12' E 026°34'20212.8
2017-Jul-22 23:09N 34°03' E 022°39'5912.5
2017-Jul-22 18:25N 34°18' E 021°30'512.2
2017-Jul-22 17:58N 34°20' E 021°24'1912.6
2017-Jul-22 16:28N 34°25' E 021°01'1112.7
2017-Jul-22 15:35N 34°27' E 020°48'112.8
2017-Jul-22 15:29N 34°28' E 020°47'612.9
2017-Jul-22 15:00N 34°29' E 020°39'2112.8
2017-Jul-22 13:21N 34°34' E 020°15'412.6
2017-Jul-22 13:00N 34°36' E 020°09'1512.6
2017-Jul-22 11:49N 34°40' E 019°52'412.5
2017-Jul-22 11:29N 34°41' E 019°47'3412.6
2017-Jul-22 08:45N 34°50' E 019°07'7 9.5
2017-Jul-22 08:00N 34°51' E 018°58'612.9
2017-Jul-22 07:30N 34°52' E 018°51'815.0
2017-Jul-22 06:57N 34°55' E 018°41'1015.0
2017-Jul-22 06:16N 34°57' E 018°29'415.1
2017-Jul-22 06:00N 34°58' E 018°24'715.0
2017-Jul-22 05:30N 35°00' E 018°15'714.6
2017-Jul-22 05:00N 35°02' E 018°07'713.7
2017-Jul-22 04:30N 35°04' E 017°59'713.7
2017-Jul-22 04:00N 35°06' E 017°50'713.8
2017-Jul-22 03:30N 35°07' E 017°42'713.7
2017-Jul-22 02:59N 35°09' E 017°34'713.8
2017-Jul-22 02:30N 35°11' E 017°26'713.6
2017-Jul-22 02:00N 35°13' E 017°18'713.5
2017-Jul-22 01:30N 35°15' E 017°10'713.4
2017-Jul-22 01:00N 35°16' E 017°02'713.5
2017-Jul-22 00:30N 35°18' E 016°54'713.5
2017-Jul-22 00:00N 35°20' E 016°46'713.5
2017-Jul-21 23:30N 35°21' E 016°38'713.6
2017-Jul-21 22:59N 35°23' E 016°30'713.6
2017-Jul-21 22:30N 35°25' E 016°22'713.8
2017-Jul-21 22:00N 35°27' E 016°14'713.9
2017-Jul-21 21:30N 35°28' E 016°06'714.0
2017-Jul-21 21:00N 35°30' E 015°57'714.0
2017-Jul-21 20:31N 35°32' E 015°49'714.1
2017-Jul-21 20:00N 35°34' E 015°41'714.2
2017-Jul-21 19:30N 35°36' E 015°32'714.1
2017-Jul-21 19:00N 35°37' E 015°24'714.2
2017-Jul-21 18:30N 35°39' E 015°15'714.0
2017-Jul-21 18:00N 35°41' E 015°07'713.6
2017-Jul-21 17:30N 35°43' E 014°59'713.6
2017-Jul-21 17:00N 35°44' E 014°51'713.4
2017-Jul-21 16:30N 35°45' E 014°43'613.0
2017-Jul-21 16:00N 35°48' E 014°35'3 5.7
2017-Jul-21 15:30N 35°49' E 014°32'0 0.1
2017-Jul-21 14:54N 35°49' E 014°32'0 0.0
2017-Jul-21 14:24N 35°49' E 014°32'0 0.0
2017-Jul-21 14:00N 35°49' E 014°32'0 0.0
2017-Jul-21 13:30N 35°49' E 014°32'0 0.0
2017-Jul-21 13:00N 35°49' E 014°32'0 0.0
2017-Jul-21 12:30N 35°49' E 014°32'0 0.0
2017-Jul-21 12:00N 35°49' E 014°32'0 0.0
2017-Jul-21 11:27N 35°49' E 014°32'0 0.0
2017-Jul-21 10:48N 35°49' E 014°32'0 0.0
2017-Jul-21 10:27N 35°49' E 014°32'0 0.0
2017-Jul-21 10:00N 35°49' E 014°32'0 0.0
2017-Jul-21 09:27N 35°49' E 014°32'0 0.0
2017-Jul-21 09:00N 35°49' E 014°32'0 0.0
2017-Jul-21 08:30N 35°49' E 014°32'0 0.0
2017-Jul-21 08:00N 35°49' E 014°32'0 0.0
2017-Jul-21 07:30N 35°49' E 014°32'0 0.3
2017-Jul-21 07:00N 35°49' E 014°32'2 4.9
2017-Jul-21 06:30N 35°48' E 014°35'1 2.5
2017-Jul-21 06:01N 35°47' E 014°36'2 3.5
2017-Jul-21 05:30N 35°46' E 014°37'1 2.4
2017-Jul-21 05:00N 35°44' E 014°37'0 0.3
2017-Jul-21 04:30N 35°44' E 014°36'0 0.5
2017-Jul-21 04:00N 35°44' E 014°36'2 4.4
2017-Jul-21 03:30N 35°44' E 014°33'612.0
2017-Jul-21 03:00N 35°43' E 014°26'816.1
2017-Jul-21 02:30N 35°48' E 014°19'918.2
2017-Jul-21 02:00N 35°54' E 014°10'918.0
2017-Jul-21 01:30N 36°01' E 014°03'918.1
2017-Jul-21 01:00N 36°07' E 013°55'918.1
2017-Jul-21 00:30N 36°13' E 013°47'918.1
2017-Jul-21 00:00N 36°20' E 013°39'918.1
2017-Jul-20 23:30N 36°26' E 013°31'918.1
2017-Jul-20 23:00N 36°33' E 013°23'918.0
2017-Jul-20 22:30N 36°39' E 013°15'917.8
2017-Jul-20 22:00N 36°45' E 013°07'917.8
2017-Jul-20 21:30N 36°51' E 012°58'918.0
2017-Jul-20 21:00N 36°58' E 012°51'918.2
2017-Jul-20 20:30N 37°04' E 012°43'918.1
2017-Jul-20 20:01N 37°10' E 012°35'917.7
2017-Jul-20 19:30N 37°17' E 012°27'917.6
2017-Jul-20 19:00N 37°23' E 012°19'918.3
2017-Jul-20 18:30N 37°28' E 012°10'918.6
2017-Jul-20 18:00N 37°35' E 012°02'918.7
2017-Jul-20 17:30N 37°42' E 011°54'918.7
2017-Jul-20 17:00N 37°50' E 011°47'918.5
2017-Jul-20 16:30N 37°58' E 011°44'1018.3
2017-Jul-20 15:59N 38°08' E 011°40'918.1
2017-Jul-20 15:30N 38°16' E 011°37'4218.3
2017-Jul-20 13:12N 38°55' E 011°17'2718.4
2017-Jul-20 11:44N 39°20' E 011°05'418.6
2017-Jul-20 11:30N 39°24' E 011°03'1418.6
2017-Jul-20 10:46N 39°37' E 010°57'718.4
2017-Jul-20 10:25N 39°44' E 010°55'917.7
2017-Jul-20 09:54N 39°52' E 010°51'817.1
2017-Jul-20 09:26N 39°60' E 010°48'7017.2
2017-Jul-20 05:24N 41°07' E 010°22'718.5
2017-Jul-20 05:00N 41°13' E 010°18'918.8
2017-Jul-20 04:30N 41°22' E 010°15'918.7
2017-Jul-20 04:01N 41°31' E 010°11'918.6
2017-Jul-20 03:30N 41°40' E 010°07'918.6
2017-Jul-20 03:00N 41°49' E 010°03'918.8
2017-Jul-20 02:30N 41°58' E 009°59'1019.2
2017-Jul-20 02:01N 42°07' E 009°56'919.0
2017-Jul-20 01:30N 42°16' E 009°52'1018.9
2017-Jul-20 01:00N 42°25' E 009°49'918.9
2017-Jul-20 00:30N 42°34' E 009°45'1418.4
2017-Jul-19 23:46N 42°47' E 009°40'518.1
2017-Jul-19 23:30N 42°52' E 009°38'917.9
2017-Jul-19 23:00N 43°01' E 009°35'917.9
2017-Jul-19 22:30N 43°09' E 009°32'918.0
2017-Jul-19 22:00N 43°18' E 009°29'918.1
2017-Jul-19 21:30N 43°26' E 009°25'918.0
2017-Jul-19 21:00N 43°35' E 009°21'918.2
2017-Jul-19 20:30N 43°44' E 009°17'918.1
2017-Jul-19 20:00N 43°52' E 009°13'918.3
2017-Jul-19 19:30N 44°01' E 009°09'918.5
2017-Jul-19 19:00N 44°09' E 009°04'918.7
2017-Jul-19 18:30N 44°18' E 008°59'612.6
2017-Jul-19 18:01N 44°24' E 008°55'1 1.2
2017-Jul-19 17:28N 44°24' E 008°55'0 0.0
2017-Jul-19 16:58N 44°24' E 008°55'0 0.0
2017-Jul-19 16:28N 44°24' E 008°55'0 0.0
2017-Jul-19 15:58N 44°24' E 008°55'0 0.0
2017-Jul-19 15:28N 44°24' E 008°55'0 0.0
2017-Jul-19 14:58N 44°24' E 008°55'0 0.0
2017-Jul-19 14:28N 44°24' E 008°55'0 0.0
2017-Jul-19 13:55N 44°24' E 008°55'0 0.0
2017-Jul-19 13:28N 44°24' E 008°55'0 0.0
2017-Jul-19 12:55N 44°24' E 008°55'0 0.0
2017-Jul-19 12:19N 44°24' E 008°55'0 0.0
2017-Jul-19 11:55N 44°24' E 008°55'0 0.0
2017-Jul-19 11:22N 44°24' E 008°55'0 0.0
2017-Jul-19 10:58N 44°24' E 008°55'0 0.0
2017-Jul-19 10:25N 44°24' E 008°55'0 0.0
2017-Jul-19 09:58N 44°24' E 008°55'0 0.0
2017-Jul-19 09:28N 44°24' E 008°55'0 0.0
2017-Jul-19 08:52N 44°24' E 008°55'0 0.0
2017-Jul-19 08:28N 44°24' E 008°55'0 0.0
2017-Jul-19 07:58N 44°24' E 008°55'0 0.0
2017-Jul-19 07:28N 44°24' E 008°55'0 0.0
2017-Jul-19 06:55N 44°24' E 008°55'0 0.0
2017-Jul-19 06:28N 44°24' E 008°55'0 0.0
2017-Jul-19 05:55N 44°24' E 008°55'0 0.0
2017-Jul-19 05:28N 44°24' E 008°55'0 0.0
2017-Jul-19 04:58N 44°24' E 008°55'0 0.0
2017-Jul-19 04:28N 44°24' E 008°55'0 0.0
2017-Jul-19 03:58N 44°24' E 008°55'0 0.0
2017-Jul-19 03:28N 44°24' E 008°55'0 0.0
2017-Jul-19 02:58N 44°24' E 008°55'0 0.0
2017-Jul-19 02:28N 44°24' E 008°55'0 0.0
2017-Jul-19 01:58N 44°24' E 008°55'0 0.0
2017-Jul-19 01:28N 44°24' E 008°55'0 0.0
2017-Jul-19 01:00N 44°24' E 008°55'0 0.0
2017-Jul-19 00:30N 44°24' E 008°55'0 0.0
2017-Jul-19 00:00N 44°24' E 008°55'0 0.0
2017-Jul-18 23:30N 44°24' E 008°55'0 0.0
2017-Jul-18 23:00N 44°24' E 008°55'0 0.0
2017-Jul-18 22:30N 44°24' E 008°55'0 0.0
2017-Jul-18 22:00N 44°24' E 008°55'0 0.0
2017-Jul-18 21:30N 44°24' E 008°55'0 0.0
2017-Jul-18 21:00N 44°24' E 008°55'0 0.0
2017-Jul-18 20:30N 44°24' E 008°55'0 0.0
2017-Jul-18 20:00N 44°24' E 008°55'0 0.0
2017-Jul-18 19:30N 44°24' E 008°55'0 0.0
2017-Jul-18 19:00N 44°24' E 008°55'0 0.0
2017-Jul-18 18:30N 44°24' E 008°55'0 0.0
2017-Jul-18 18:00N 44°24' E 008°55'0 0.0
2017-Jul-18 17:30N 44°24' E 008°55'0 0.0
2017-Jul-18 17:00N 44°24' E 008°55'0 0.0
2017-Jul-18 16:30N 44°24' E 008°55'0 0.0
2017-Jul-18 16:00N 44°24' E 008°55'0 0.0
2017-Jul-18 15:30N 44°24' E 008°55'0 0.0
2017-Jul-18 15:00N 44°24' E 008°55'0 0.0
2017-Jul-18 14:00N 44°24' E 008°55'0 0.0
2017-Jul-18 13:30N 44°24' E 008°55'0 0.0
2017-Jul-18 12:54N 44°24' E 008°55'0 0.0
2017-Jul-18 12:27N 44°24' E 008°55'0 0.0
2017-Jul-18 12:00N 44°24' E 008°55'0 0.0
2017-Jul-18 11:27N 44°24' E 008°55'0 0.0
2017-Jul-18 10:57N 44°24' E 008°55'0 0.0
2017-Jul-18 10:30N 44°24' E 008°55'0 0.0
2017-Jul-18 10:00N 44°24' E 008°55'0 0.0
2017-Jul-18 09:30N 44°24' E 008°55'1 1.7
2017-Jul-18 09:00N 44°24' E 008°56'2 4.5
2017-Jul-18 08:30N 44°22' E 008°58'4 8.7
2017-Jul-18 08:00N 44°18' E 009°00'612.7
2017-Jul-18 07:30N 44°12' E 008°59'714.2
2017-Jul-18 07:00N 44°06' E 008°53'713.2
2017-Jul-18 06:31N 44°01' E 008°48'612.8
2017-Jul-18 06:01N 43°56' E 008°42'612.7
2017-Jul-18 05:31N 43°51' E 008°36'612.8
2017-Jul-18 05:00N 43°46' E 008°30'612.7
2017-Jul-18 04:31N 43°41' E 008°25'612.6
2017-Jul-18 04:00N 43°36' E 008°19'612.7
2017-Jul-18 03:31N 43°31' E 008°14'612.7
2017-Jul-18 03:01N 43°26' E 008°09'713.2
2017-Jul-18 02:30N 43°22' E 008°01'713.8
2017-Jul-18 02:01N 43°18' E 007°54'713.6
2017-Jul-18 01:31N 43°14' E 007°46'713.4
2017-Jul-18 01:01N 43°11' E 007°38'713.5
2017-Jul-18 00:31N 43°07' E 007°31'713.4
2017-Jul-18 00:01N 43°03' E 007°23'713.2
2017-Jul-17 23:31N 42°60' E 007°15'713.0
2017-Jul-17 23:01N 42°57' E 007°07'613.0
2017-Jul-17 22:31N 42°54' E 006°59'712.9
2017-Jul-17 22:00N 42°51' E 006°51'1112.9
2017-Jul-17 21:07N 42°45' E 006°38'312.8
2017-Jul-17 20:52N 42°44' E 006°34'512.8
2017-Jul-17 20:31N 42°42' E 006°29'612.7
2017-Jul-17 20:01N 42°39' E 006°21'612.8
2017-Jul-17 19:31N 42°36' E 006°13'612.8
2017-Jul-17 19:00N 42°33' E 006°05'712.9
2017-Jul-17 18:29N 42°30' E 005°57'713.0
2017-Jul-17 17:56N 42°27' E 005°49'512.6
2017-Jul-17 17:30N 42°24' E 005°42'913.6
2017-Jul-17 16:52N 42°20' E 005°32'1813.9
2017-Jul-17 15:34N 42°11' E 005°10'114.0
2017-Jul-17 15:31N 42°11' E 005°09'913.8
2017-Jul-17 14:52N 42°07' E 004°59'2212.5
2017-Jul-17 13:08N 41°56' E 004°34'312.0
2017-Jul-17 12:52N 41°55' E 004°30'512.1
2017-Jul-17 12:30N 41°53' E 004°24'612.3
2017-Jul-17 12:00N 41°50' E 004°17'812.3
2017-Jul-17 11:24N 41°46' E 004°08'612.7
2017-Jul-17 10:56N 41°43' E 004°02'1512.5
2017-Jul-17 09:44N 41°36' E 003°44'414.4
2017-Jul-17 09:29N 41°34' E 003°40'714.8
2017-Jul-17 09:00N 41°30' E 003°32'1115.7
2017-Jul-17 08:18N 41°25' E 003°19'515.4
2017-Jul-17 08:00N 41°22' E 003°14'815.6
2017-Jul-17 07:30N 41°16' E 003°08'815.7
2017-Jul-17 07:00N 41°10' E 003°02'815.8
2017-Jul-17 06:30N 41°04' E 002°55'815.9
2017-Jul-17 06:00N 40°57' E 002°49'816.1
2017-Jul-17 05:30N 40°51' E 002°42'816.0
2017-Jul-17 05:00N 40°45' E 002°35'816.1
2017-Jul-17 04:30N 40°38' E 002°29'816.0
2017-Jul-17 04:00N 40°32' E 002°23'815.8
2017-Jul-17 03:30N 40°26' E 002°16'815.9
2017-Jul-17 03:00N 40°20' E 002°09'816.0
2017-Jul-17 02:30N 40°14' E 002°03'816.2
2017-Jul-17 02:00N 40°07' E 001°56'816.0
2017-Jul-17 01:30N 40°01' E 001°49'816.0
2017-Jul-17 01:00N 39°55' E 001°43'815.9
2017-Jul-17 00:30N 39°49' E 001°37'815.8
2017-Jul-17 00:00N 39°42' E 001°30'815.7
2017-Jul-16 23:30N 39°36' E 001°24'815.7
2017-Jul-16 23:00N 39°30' E 001°18'815.7
2017-Jul-16 22:30N 39°24' E 001°11'816.0
2017-Jul-16 21:59N 39°17' E 001°05'816.0
2017-Jul-16 21:30N 39°11' E 000°58'2316.0
2017-Jul-16 20:03N 38°53' E 000°40'316.3
2017-Jul-16 19:52N 38°51' E 000°37'916.4
2017-Jul-16 19:21N 38°44' E 000°30'616.5
2017-Jul-16 19:00N 38°39' E 000°26'1116.2
2017-Jul-16 18:20N 38°31' E 000°19'412.9
2017-Jul-16 18:00N 38°27' E 000°16'611.3
2017-Jul-16 17:29N 38°22' E 000°11'611.4
2017-Jul-16 17:00N 38°17' E 000°08'2611.2
2017-Jul-16 14:43N 37°56' W 000°11'1111.0
2017-Jul-16 13:42N 37°47' W 000°19'211.2
2017-Jul-16 13:29N 37°45' W 000°21'511.3
2017-Jul-16 13:00N 37°41' W 000°24'611.5
2017-Jul-16 12:30N 37°36' W 000°29'611.3
2017-Jul-16 12:00N 37°31' W 000°33'612.6
2017-Jul-16 11:29N 37°27' W 000°39'919.2
2017-Jul-16 11:00N 37°21' W 000°48'1019.9
2017-Jul-16 10:30N 37°15' W 000°57'  

Dump ship's entire track history